sensor_id;sensor_type;location;lat;lon;timestamp;P1;durP1;ratioP1;P2;durP2;ratioP2
37787;SDS011;23627;53.302;-6.362;2023-04-10T00:01:39;2.22;;;0.60;;
37787;SDS011;23627;53.302;-6.362;2023-04-10T00:04:05;4.90;;;0.60;;
37787;SDS011;23627;53.302;-6.362;2023-04-10T00:06:31;1.67;;;0.40;;
37787;SDS011;23627;53.302;-6.362;2023-04-10T00:08:57;3.83;;;0.52;;
37787;SDS011;23627;53.302;-6.362;2023-04-10T00:11:24;2.10;;;0.50;;
37787;SDS011;23627;53.302;-6.362;2023-04-10T00:13:50;3.67;;;0.60;;
37787;SDS011;23627;53.302;-6.362;2023-04-10T00:16:16;1.77;;;0.50;;
37787;SDS011;23627;53.302;-6.362;2023-04-10T00:18:42;4.93;;;0.60;;
37787;SDS011;23627;53.302;-6.362;2023-04-10T00:21:08;3.05;;;0.47;;
37787;SDS011;23627;53.302;-6.362;2023-04-10T00:23:34;2.47;;;0.60;;
37787;SDS011;23627;53.302;-6.362;2023-04-10T00:26:00;3.65;;;0.65;;
37787;SDS011;23627;53.302;-6.362;2023-04-10T00:28:26;2.10;;;0.65;;
37787;SDS011;23627;53.302;-6.362;2023-04-10T00:30:52;4.32;;;0.60;;
37787;SDS011;23627;53.302;-6.362;2023-04-10T00:33:17;3.90;;;0.88;;
37787;SDS011;23627;53.302;-6.362;2023-04-10T00:35:43;1.77;;;0.50;;
37787;SDS011;23627;53.302;-6.362;2023-04-10T00:38:09;2.90;;;0.47;;
37787;SDS011;23627;53.302;-6.362;2023-04-10T00:40:34;2.95;;;0.65;;
37787;SDS011;23627;53.302;-6.362;2023-04-10T00:43:00;2.08;;;0.50;;
37787;SDS011;23627;53.302;-6.362;2023-04-10T00:45:26;3.25;;;0.75;;
37787;SDS011;23627;53.302;-6.362;2023-04-10T00:47:52;2.05;;;0.50;;
37787;SDS011;23627;53.302;-6.362;2023-04-10T00:50:19;4.82;;;0.98;;
37787;SDS011;23627;53.302;-6.362;2023-04-10T00:52:45;2.80;;;0.50;;
37787;SDS011;23627;53.302;-6.362;2023-04-10T00:55:12;3.50;;;0.60;;
37787;SDS011;23627;53.302;-6.362;2023-04-10T00:57:41;3.05;;;0.65;;
37787;SDS011;23627;53.302;-6.362;2023-04-10T01:00:10;4.10;;;0.63;;
37787;SDS011;23627;53.302;-6.362;2023-04-10T01:02:37;2.03;;;0.50;;
37787;SDS011;23627;53.302;-6.362;2023-04-10T01:05:03;5.47;;;0.80;;
37787;SDS011;23627;53.302;-6.362;2023-04-10T01:10:24;2.42;;;0.80;;
37787;SDS011;23627;53.302;-6.362;2023-04-10T01:16:08;4.22;;;0.70;;
37787;SDS011;23627;53.302;-6.362;2023-04-10T01:18:44;2.90;;;0.60;;
37787;SDS011;23627;53.302;-6.362;2023-04-10T01:21:15;3.30;;;0.60;;
37787;SDS011;23627;53.302;-6.362;2023-04-10T01:27:12;1.80;;;0.52;;
37787;SDS011;23627;53.302;-6.362;2023-04-10T01:29:23;4.40;;;0.70;;
37787;SDS011;23627;53.302;-6.362;2023-04-10T01:31:56;4.20;;;0.80;;
37787;SDS011;23627;53.302;-6.362;2023-04-10T01:34:31;2.90;;;0.88;;
37787;SDS011;23627;53.302;-6.362;2023-04-10T01:37:04;3.92;;;0.70;;
37787;SDS011;23627;53.302;-6.362;2023-04-10T01:39:36;3.88;;;0.60;;
37787;SDS011;23627;53.302;-6.362;2023-04-10T01:42:04;3.70;;;0.60;;
37787;SDS011;23627;53.302;-6.362;2023-04-10T01:44:31;4.30;;;0.70;;
37787;SDS011;23627;53.302;-6.362;2023-04-10T01:46:58;3.58;;;0.90;;
37787;SDS011;23627;53.302;-6.362;2023-04-10T01:49:26;3.83;;;0.60;;
37787;SDS011;23627;53.302;-6.362;2023-04-10T01:51:52;2.35;;;0.80;;
37787;SDS011;23627;53.302;-6.362;2023-04-10T01:54:23;3.42;;;0.60;;
37787;SDS011;23627;53.302;-6.362;2023-04-10T01:56:52;3.63;;;0.80;;
37787;SDS011;23627;53.302;-6.362;2023-04-10T01:59:18;3.75;;;0.80;;
37787;SDS011;23627;53.302;-6.362;2023-04-10T02:01:44;2.00;;;0.80;;
37787;SDS011;23627;53.302;-6.362;2023-04-10T02:04:10;4.28;;;0.80;;
37787;SDS011;23627;53.302;-6.362;2023-04-10T02:09:53;4.18;;;0.70;;
37787;SDS011;23627;53.302;-6.362;2023-04-10T02:12:45;3.63;;;0.70;;
37787;SDS011;23627;53.302;-6.362;2023-04-10T02:15:18;2.95;;;0.93;;
37787;SDS011;23627;53.302;-6.362;2023-04-10T02:17:46;3.33;;;0.80;;
37787;SDS011;23627;53.302;-6.362;2023-04-10T02:20:13;5.25;;;1.13;;
37787;SDS011;23627;53.302;-6.362;2023-04-10T02:22:40;2.55;;;0.70;;
37787;SDS011;23627;53.302;-6.362;2023-04-10T02:25:08;3.22;;;0.65;;
37787;SDS011;23627;53.302;-6.362;2023-04-10T02:27:34;3.13;;;0.95;;
37787;SDS011;23627;53.302;-6.362;2023-04-10T02:30:01;3.70;;;0.80;;
37787;SDS011;23627;53.302;-6.362;2023-04-10T02:32:28;3.88;;;0.80;;
37787;SDS011;23627;53.302;-6.362;2023-04-10T02:34:55;7.05;;;1.17;;
37787;SDS011;23627;53.302;-6.362;2023-04-10T02:37:21;3.45;;;0.70;;
37787;SDS011;23627;53.302;-6.362;2023-04-10T02:39:47;4.63;;;1.50;;
37787;SDS011;23627;53.302;-6.362;2023-04-10T02:42:13;3.55;;;0.80;;
37787;SDS011;23627;53.302;-6.362;2023-04-10T02:44:40;6.10;;;1.30;;
37787;SDS011;23627;53.302;-6.362;2023-04-10T02:47:05;3.85;;;1.00;;
37787;SDS011;23627;53.302;-6.362;2023-04-10T02:49:32;5.88;;;1.17;;
37787;SDS011;23627;53.302;-6.362;2023-04-10T02:51:58;5.32;;;1.02;;
37787;SDS011;23627;53.302;-6.362;2023-04-10T02:54:25;8.25;;;1.48;;
37787;SDS011;23627;53.302;-6.362;2023-04-10T02:56:50;3.63;;;1.00;;
37787;SDS011;23627;53.302;-6.362;2023-04-10T02:59:16;5.30;;;1.05;;
37787;SDS011;23627;53.302;-6.362;2023-04-10T03:01:42;6.38;;;1.10;;
37787;SDS011;23627;53.302;-6.362;2023-04-10T03:04:09;7.18;;;1.30;;
37787;SDS011;23627;53.302;-6.362;2023-04-10T03:06:35;4.68;;;1.50;;
37787;SDS011;23627;53.302;-6.362;2023-04-10T03:09:01;5.97;;;1.00;;
37787;SDS011;23627;53.302;-6.362;2023-04-10T03:11:27;7.80;;;1.50;;
37787;SDS011;23627;53.302;-6.362;2023-04-10T03:13:52;7.60;;;1.48;;
37787;SDS011;23627;53.302;-6.362;2023-04-10T03:16:18;4.45;;;1.10;;
37787;SDS011;23627;53.302;-6.362;2023-04-10T03:18:45;7.13;;;1.45;;
37787;SDS011;23627;53.302;-6.362;2023-04-10T03:21:11;5.22;;;1.05;;
37787;SDS011;23627;53.302;-6.362;2023-04-10T03:23:36;5.70;;;1.20;;
37787;SDS011;23627;53.302;-6.362;2023-04-10T03:26:02;5.68;;;1.20;;
37787;SDS011;23627;53.302;-6.362;2023-04-10T03:28:28;7.82;;;1.50;;
37787;SDS011;23627;53.302;-6.362;2023-04-10T03:30:54;7.97;;;1.27;;
37787;SDS011;23627;53.302;-6.362;2023-04-10T03:33:21;5.18;;;1.20;;
37787;SDS011;23627;53.302;-6.362;2023-04-10T03:35:46;5.72;;;1.45;;
37787;SDS011;23627;53.302;-6.362;2023-04-10T03:38:12;4.20;;;1.27;;
37787;SDS011;23627;53.302;-6.362;2023-04-10T03:40:38;5.60;;;1.50;;
37787;SDS011;23627;53.302;-6.362;2023-04-10T03:43:04;6.82;;;1.40;;
37787;SDS011;23627;53.302;-6.362;2023-04-10T03:45:30;5.43;;;1.30;;
37787;SDS011;23627;53.302;-6.362;2023-04-10T03:47:55;6.32;;;1.33;;
37787;SDS011;23627;53.302;-6.362;2023-04-10T03:50:23;5.88;;;1.25;;
37787;SDS011;23627;53.302;-6.362;2023-04-10T03:52:49;6.80;;;1.33;;
37787;SDS011;23627;53.302;-6.362;2023-04-10T03:55:15;6.47;;;1.42;;
37787;SDS011;23627;53.302;-6.362;2023-04-10T03:57:47;4.80;;;1.42;;
37787;SDS011;23627;53.302;-6.362;2023-04-10T04:00:13;7.60;;;1.17;;
37787;SDS011;23627;53.302;-6.362;2023-04-10T04:02:39;6.93;;;1.50;;
37787;SDS011;23627;53.302;-6.362;2023-04-10T04:05:05;6.70;;;1.42;;
37787;SDS011;23627;53.302;-6.362;2023-04-10T04:07:31;5.40;;;1.30;;
37787;SDS011;23627;53.302;-6.362;2023-04-10T04:09:57;4.80;;;1.10;;
37787;SDS011;23627;53.302;-6.362;2023-04-10T04:12:24;5.55;;;1.48;;
37787;SDS011;23627;53.302;-6.362;2023-04-10T04:14:50;5.97;;;1.20;;
37787;SDS011;23627;53.302;-6.362;2023-04-10T04:17:16;6.63;;;1.58;;
37787;SDS011;23627;53.302;-6.362;2023-04-10T04:19:42;4.80;;;1.10;;
37787;SDS011;23627;53.302;-6.362;2023-04-10T04:22:08;8.07;;;1.55;;
37787;SDS011;23627;53.302;-6.362;2023-04-10T04:24:34;8.02;;;1.33;;
37787;SDS011;23627;53.302;-6.362;2023-04-10T04:27:00;5.40;;;1.50;;
37787;SDS011;23627;53.302;-6.362;2023-04-10T04:29:26;4.10;;;1.30;;
37787;SDS011;23627;53.302;-6.362;2023-04-10T04:31:52;5.32;;;1.23;;
37787;SDS011;23627;53.302;-6.362;2023-04-10T04:34:18;3.65;;;0.90;;
37787;SDS011;23627;53.302;-6.362;2023-04-10T04:36:44;5.65;;;1.33;;
37787;SDS011;23627;53.302;-6.362;2023-04-10T04:39:09;7.47;;;1.10;;
37787;SDS011;23627;53.302;-6.362;2023-04-10T04:41:35;4.85;;;1.30;;
37787;SDS011;23627;53.302;-6.362;2023-04-10T04:44:01;4.43;;;1.17;;
37787;SDS011;23627;53.302;-6.362;2023-04-10T04:46:27;6.03;;;1.20;;
37787;SDS011;23627;53.302;-6.362;2023-04-10T04:48:53;5.95;;;1.30;;
37787;SDS011;23627;53.302;-6.362;2023-04-10T04:51:18;9.10;;;1.55;;
37787;SDS011;23627;53.302;-6.362;2023-04-10T04:53:44;6.75;;;1.38;;
37787;SDS011;23627;53.302;-6.362;2023-04-10T04:56:10;6.20;;;1.65;;
37787;SDS011;23627;53.302;-6.362;2023-04-10T04:58:36;5.68;;;1.10;;
37787;SDS011;23627;53.302;-6.362;2023-04-10T05:01:02;5.57;;;1.05;;
37787;SDS011;23627;53.302;-6.362;2023-04-10T05:03:27;5.13;;;1.10;;
37787;SDS011;23627;53.302;-6.362;2023-04-10T05:05:53;5.47;;;1.20;;
37787;SDS011;23627;53.302;-6.362;2023-04-10T05:08:19;4.63;;;1.27;;
37787;SDS011;23627;53.302;-6.362;2023-04-10T05:10:45;2.97;;;0.90;;
37787;SDS011;23627;53.302;-6.362;2023-04-10T05:13:12;4.68;;;0.90;;
37787;SDS011;23627;53.302;-6.362;2023-04-10T05:15:39;5.50;;;1.00;;
37787;SDS011;23627;53.302;-6.362;2023-04-10T05:18:05;7.18;;;1.20;;
37787;SDS011;23627;53.302;-6.362;2023-04-10T05:20:33;6.20;;;1.13;;
37787;SDS011;23627;53.302;-6.362;2023-04-10T05:22:59;5.93;;;1.00;;
37787;SDS011;23627;53.302;-6.362;2023-04-10T05:25:25;4.03;;;1.00;;
37787;SDS011;23627;53.302;-6.362;2023-04-10T05:27:51;4.03;;;0.80;;
37787;SDS011;23627;53.302;-6.362;2023-04-10T05:30:17;6.10;;;1.15;;
37787;SDS011;23627;53.302;-6.362;2023-04-10T05:32:42;9.48;;;1.10;;
37787;SDS011;23627;53.302;-6.362;2023-04-10T05:35:10;6.70;;;1.10;;
37787;SDS011;23627;53.302;-6.362;2023-04-10T05:37:35;6.45;;;1.08;;
37787;SDS011;23627;53.302;-6.362;2023-04-10T05:40:01;5.75;;;1.17;;
37787;SDS011;23627;53.302;-6.362;2023-04-10T05:42:27;5.43;;;1.02;;
37787;SDS011;23627;53.302;-6.362;2023-04-10T05:44:53;5.43;;;0.90;;
37787;SDS011;23627;53.302;-6.362;2023-04-10T05:47:19;7.00;;;1.20;;
37787;SDS011;23627;53.302;-6.362;2023-04-10T05:49:45;5.00;;;1.05;;
37787;SDS011;23627;53.302;-6.362;2023-04-10T05:52:10;5.68;;;1.17;;
37787;SDS011;23627;53.302;-6.362;2023-04-10T05:54:36;6.43;;;0.80;;
37787;SDS011;23627;53.302;-6.362;2023-04-10T05:57:02;5.07;;;0.90;;
37787;SDS011;23627;53.302;-6.362;2023-04-10T05:59:27;5.80;;;0.80;;
37787;SDS011;23627;53.302;-6.362;2023-04-10T06:01:53;5.90;;;1.05;;
37787;SDS011;23627;53.302;-6.362;2023-04-10T06:04:20;5.88;;;1.05;;
37787;SDS011;23627;53.302;-6.362;2023-04-10T06:06:46;7.70;;;1.40;;
37787;SDS011;23627;53.302;-6.362;2023-04-10T06:09:12;3.95;;;0.95;;
37787;SDS011;23627;53.302;-6.362;2023-04-10T06:11:37;6.10;;;1.27;;
37787;SDS011;23627;53.302;-6.362;2023-04-10T06:14:03;6.90;;;1.00;;
37787;SDS011;23627;53.302;-6.362;2023-04-10T06:16:29;5.22;;;1.00;;
37787;SDS011;23627;53.302;-6.362;2023-04-10T06:18:55;4.05;;;0.95;;
37787;SDS011;23627;53.302;-6.362;2023-04-10T06:21:21;6.15;;;0.90;;
37787;SDS011;23627;53.302;-6.362;2023-04-10T06:23:47;5.82;;;0.98;;
37787;SDS011;23627;53.302;-6.362;2023-04-10T06:26:12;5.07;;;1.42;;
37787;SDS011;23627;53.302;-6.362;2023-04-10T06:28:38;4.78;;;1.00;;
37787;SDS011;23627;53.302;-6.362;2023-04-10T06:31:06;5.65;;;1.20;;
37787;SDS011;23627;53.302;-6.362;2023-04-10T06:33:31;7.50;;;1.23;;
37787;SDS011;23627;53.302;-6.362;2023-04-10T06:36:00;6.57;;;1.08;;
37787;SDS011;23627;53.302;-6.362;2023-04-10T06:38:25;6.55;;;1.08;;
37787;SDS011;23627;53.302;-6.362;2023-04-10T06:40:51;3.03;;;0.98;;
37787;SDS011;23627;53.302;-6.362;2023-04-10T06:43:17;3.92;;;0.90;;
37787;SDS011;23627;53.302;-6.362;2023-04-10T06:45:43;5.75;;;1.40;;
37787;SDS011;23627;53.302;-6.362;2023-04-10T06:48:09;5.32;;;1.05;;
37787;SDS011;23627;53.302;-6.362;2023-04-10T06:50:35;7.05;;;1.05;;
37787;SDS011;23627;53.302;-6.362;2023-04-10T06:53:01;4.82;;;0.90;;
37787;SDS011;23627;53.302;-6.362;2023-04-10T06:55:32;5.50;;;0.98;;
37787;SDS011;23627;53.302;-6.362;2023-04-10T07:01:26;6.32;;;1.00;;
37787;SDS011;23627;53.302;-6.362;2023-04-10T07:03:54;4.82;;;1.00;;
37787;SDS011;23627;53.302;-6.362;2023-04-10T07:06:20;6.15;;;0.95;;
37787;SDS011;23627;53.302;-6.362;2023-04-10T07:08:49;4.07;;;0.70;;
37787;SDS011;23627;53.302;-6.362;2023-04-10T07:11:15;6.10;;;1.23;;
37787;SDS011;23627;53.302;-6.362;2023-04-10T07:13:41;5.57;;;0.90;;
37787;SDS011;23627;53.302;-6.362;2023-04-10T07:16:06;3.17;;;0.63;;
37787;SDS011;23627;53.302;-6.362;2023-04-10T07:18:33;2.22;;;0.60;;
37787;SDS011;23627;53.302;-6.362;2023-04-10T07:21:00;3.17;;;0.60;;
37787;SDS011;23627;53.302;-6.362;2023-04-10T07:23:26;4.03;;;0.90;;
37787;SDS011;23627;53.302;-6.362;2023-04-10T07:25:52;2.13;;;0.50;;
37787;SDS011;23627;53.302;-6.362;2023-04-10T07:28:17;3.40;;;0.55;;
37787;SDS011;23627;53.302;-6.362;2023-04-10T07:30:43;4.15;;;0.70;;
37787;SDS011;23627;53.302;-6.362;2023-04-10T07:33:09;5.55;;;0.70;;
37787;SDS011;23627;53.302;-6.362;2023-04-10T07:35:34;4.30;;;0.80;;
37787;SDS011;23627;53.302;-6.362;2023-04-10T07:38:00;2.72;;;0.63;;
37787;SDS011;23627;53.302;-6.362;2023-04-10T07:40:26;1.83;;;0.52;;
37787;SDS011;23627;53.302;-6.362;2023-04-10T07:42:52;1.60;;;0.40;;
37787;SDS011;23627;53.302;-6.362;2023-04-10T07:45:17;2.22;;;0.60;;
37787;SDS011;23627;53.302;-6.362;2023-04-10T08:11:06;2.60;;;0.73;;
37787;SDS011;23627;53.302;-6.362;2023-04-10T08:13:45;2.95;;;1.00;;
37787;SDS011;23627;53.302;-6.362;2023-04-10T08:16:11;3.40;;;0.50;;
37787;SDS011;23627;53.302;-6.362;2023-04-10T08:18:37;2.00;;;0.50;;
37787;SDS011;23627;53.302;-6.362;2023-04-10T08:21:02;2.75;;;0.60;;
37787;SDS011;23627;53.302;-6.362;2023-04-10T08:23:28;2.53;;;0.45;;
37787;SDS011;23627;53.302;-6.362;2023-04-10T08:25:54;3.10;;;0.60;;
37787;SDS011;23627;53.302;-6.362;2023-04-10T08:28:20;2.40;;;0.43;;
37787;SDS011;23627;53.302;-6.362;2023-04-10T08:30:46;0.90;;;0.47;;
37787;SDS011;23627;53.302;-6.362;2023-04-10T08:33:11;1.48;;;0.50;;
37787;SDS011;23627;53.302;-6.362;2023-04-10T08:35:37;2.53;;;0.50;;
37787;SDS011;23627;53.302;-6.362;2023-04-10T08:38:03;2.25;;;0.50;;
37787;SDS011;23627;53.302;-6.362;2023-04-10T08:40:29;1.08;;;0.50;;
37787;SDS011;23627;53.302;-6.362;2023-04-10T08:42:56;3.00;;;0.55;;
37787;SDS011;23627;53.302;-6.362;2023-04-10T08:45:21;1.83;;;0.40;;
37787;SDS011;23627;53.302;-6.362;2023-04-10T08:47:47;2.60;;;0.30;;
37787;SDS011;23627;53.302;-6.362;2023-04-10T08:50:16;1.25;;;0.35;;
37787;SDS011;23627;53.302;-6.362;2023-04-10T08:52:43;1.20;;;0.30;;
37787;SDS011;23627;53.302;-6.362;2023-04-10T08:55:11;1.48;;;0.40;;
37787;SDS011;23627;53.302;-6.362;2023-04-10T08:57:40;1.25;;;0.60;;
37787;SDS011;23627;53.302;-6.362;2023-04-10T09:00:07;1.40;;;0.40;;
37787;SDS011;23627;53.302;-6.362;2023-04-10T09:02:37;1.30;;;0.40;;
37787;SDS011;23627;53.302;-6.362;2023-04-10T09:05:04;2.45;;;0.50;;
37787;SDS011;23627;53.302;-6.362;2023-04-10T09:07:34;1.00;;;0.40;;
37787;SDS011;23627;53.302;-6.362;2023-04-10T09:10:00;1.13;;;0.30;;
37787;SDS011;23627;53.302;-6.362;2023-04-10T09:12:25;0.88;;;0.40;;
37787;SDS011;23627;53.302;-6.362;2023-04-10T09:14:51;2.00;;;0.47;;
37787;SDS011;23627;53.302;-6.362;2023-04-10T09:19:53;1.25;;;0.30;;
37787;SDS011;23627;53.302;-6.362;2023-04-10T09:25:42;1.73;;;0.30;;
37787;SDS011;23627;53.302;-6.362;2023-04-10T09:28:08;2.13;;;0.45;;
37787;SDS011;23627;53.302;-6.362;2023-04-10T09:30:38;2.30;;;0.40;;
37787;SDS011;23627;53.302;-6.362;2023-04-10T09:33:24;1.58;;;0.38;;
37787;SDS011;23627;53.302;-6.362;2023-04-10T09:35:57;0.95;;;0.22;;
37787;SDS011;23627;53.302;-6.362;2023-04-10T09:38:28;4.45;;;0.90;;
37787;SDS011;23627;53.302;-6.362;2023-04-10T09:40:54;2.85;;;0.50;;
37787;SDS011;23627;53.302;-6.362;2023-04-10T09:43:33;4.35;;;0.60;;
37787;SDS011;23627;53.302;-6.362;2023-04-10T09:45:59;3.47;;;0.55;;
37787;SDS011;23627;53.302;-6.362;2023-04-10T09:48:25;2.80;;;0.43;;
37787;SDS011;23627;53.302;-6.362;2023-04-10T09:50:51;1.85;;;0.30;;
37787;SDS011;23627;53.302;-6.362;2023-04-10T09:53:18;2.65;;;0.30;;
37787;SDS011;23627;53.302;-6.362;2023-04-10T09:55:48;2.92;;;0.30;;
37787;SDS011;23627;53.302;-6.362;2023-04-10T09:58:15;2.00;;;0.40;;
37787;SDS011;23627;53.302;-6.362;2023-04-10T10:00:42;1.00;;;0.30;;
37787;SDS011;23627;53.302;-6.362;2023-04-10T10:03:10;2.53;;;0.38;;
37787;SDS011;23627;53.302;-6.362;2023-04-10T10:05:39;0.98;;;0.20;;
37787;SDS011;23627;53.302;-6.362;2023-04-10T10:08:10;2.88;;;0.50;;
37787;SDS011;23627;53.302;-6.362;2023-04-10T10:10:56;1.80;;;0.40;;
37787;SDS011;23627;53.302;-6.362;2023-04-10T10:13:33;1.90;;;0.40;;
37787;SDS011;23627;53.302;-6.362;2023-04-10T10:16:17;1.55;;;0.30;;
37787;SDS011;23627;53.302;-6.362;2023-04-10T10:21:31;1.90;;;0.35;;
37787;SDS011;23627;53.302;-6.362;2023-04-10T10:23:59;2.25;;;0.30;;
37787;SDS011;23627;53.302;-6.362;2023-04-10T10:26:27;1.90;;;0.30;;
37787;SDS011;23627;53.302;-6.362;2023-04-10T10:28:56;2.55;;;0.57;;
37787;SDS011;23627;53.302;-6.362;2023-04-10T10:31:24;1.35;;;0.40;;
37787;SDS011;23627;53.302;-6.362;2023-04-10T10:33:56;1.00;;;0.35;;
37787;SDS011;23627;53.302;-6.362;2023-04-10T10:36:24;0.82;;;0.20;;
37787;SDS011;23627;53.302;-6.362;2023-04-10T10:39:41;0.98;;;0.30;;
37787;SDS011;23627;53.302;-6.362;2023-04-10T10:44:48;2.13;;;0.40;;
37787;SDS011;23627;53.302;-6.362;2023-04-10T10:47:23;2.22;;;0.40;;
37787;SDS011;23627;53.302;-6.362;2023-04-10T10:57:47;1.42;;;0.30;;
37787;SDS011;23627;53.302;-6.362;2023-04-10T11:00:16;1.15;;;0.30;;
37787;SDS011;23627;53.302;-6.362;2023-04-10T11:02:42;1.17;;;0.50;;
37787;SDS011;23627;53.302;-6.362;2023-04-10T11:05:08;1.70;;;0.30;;
37787;SDS011;23627;53.302;-6.362;2023-04-10T11:08:20;1.52;;;0.50;;
37787;SDS011;23627;53.302;-6.362;2023-04-10T11:15:59;1.55;;;0.40;;
37787;SDS011;23627;53.302;-6.362;2023-04-10T11:23:37;1.92;;;0.40;;
37787;SDS011;23627;53.302;-6.362;2023-04-10T11:29:44;1.50;;;0.30;;
37787;SDS011;23627;53.302;-6.362;2023-04-10T11:31:58;0.52;;;0.20;;
37787;SDS011;23627;53.302;-6.362;2023-04-10T11:34:25;1.90;;;0.50;;
37787;SDS011;23627;53.302;-6.362;2023-04-10T11:36:51;2.25;;;0.60;;
37787;SDS011;23627;53.302;-6.362;2023-04-10T11:39:18;2.15;;;0.30;;
37787;SDS011;23627;53.302;-6.362;2023-04-10T11:41:46;2.10;;;0.35;;
37787;SDS011;23627;53.302;-6.362;2023-04-10T11:44:14;2.95;;;0.35;;
37787;SDS011;23627;53.302;-6.362;2023-04-10T11:46:45;1.70;;;0.30;;
37787;SDS011;23627;53.302;-6.362;2023-04-10T11:49:11;1.55;;;0.30;;
37787;SDS011;23627;53.302;-6.362;2023-04-10T11:51:48;0.65;;;0.20;;
37787;SDS011;23627;53.302;-6.362;2023-04-10T11:54:15;1.15;;;0.45;;
37787;SDS011;23627;53.302;-6.362;2023-04-10T11:56:44;3.83;;;0.60;;
37787;SDS011;23627;53.302;-6.362;2023-04-10T11:59:21;1.40;;;0.40;;
37787;SDS011;23627;53.302;-6.362;2023-04-10T12:01:46;1.83;;;0.30;;
37787;SDS011;23627;53.302;-6.362;2023-04-10T12:04:13;1.65;;;0.30;;
37787;SDS011;23627;53.302;-6.362;2023-04-10T12:06:46;2.55;;;0.38;;
37787;SDS011;23627;53.302;-6.362;2023-04-10T12:09:14;0.80;;;0.30;;
37787;SDS011;23627;53.302;-6.362;2023-04-10T12:11:51;1.23;;;0.40;;
37787;SDS011;23627;53.302;-6.362;2023-04-10T12:14:29;1.43;;;0.50;;
37787;SDS011;23627;53.302;-6.362;2023-04-10T12:16:55;1.33;;;0.30;;
37787;SDS011;23627;53.302;-6.362;2023-04-10T12:19:21;1.30;;;0.50;;
37787;SDS011;23627;53.302;-6.362;2023-04-10T12:21:47;1.55;;;0.40;;
37787;SDS011;23627;53.302;-6.362;2023-04-10T12:24:39;3.10;;;0.50;;
37787;SDS011;23627;53.302;-6.362;2023-04-10T12:29:48;1.08;;;0.30;;
37787;SDS011;23627;53.302;-6.362;2023-04-10T12:32:15;0.60;;;0.28;;
37787;SDS011;23627;53.302;-6.362;2023-04-10T12:34:41;2.65;;;0.40;;
37787;SDS011;23627;53.302;-6.362;2023-04-10T12:37:17;0.93;;;0.40;;
37787;SDS011;23627;53.302;-6.362;2023-04-10T12:39:44;1.45;;;0.20;;
37787;SDS011;23627;53.302;-6.362;2023-04-10T12:42:13;0.77;;;0.30;;
37787;SDS011;23627;53.302;-6.362;2023-04-10T12:44:54;1.65;;;0.50;;
37787;SDS011;23627;53.302;-6.362;2023-04-10T12:47:21;1.95;;;0.30;;
37787;SDS011;23627;53.302;-6.362;2023-04-10T12:50:08;1.33;;;0.30;;
37787;SDS011;23627;53.302;-6.362;2023-04-10T12:52:36;0.95;;;0.40;;
37787;SDS011;23627;53.302;-6.362;2023-04-10T12:55:07;1.08;;;0.20;;
37787;SDS011;23627;53.302;-6.362;2023-04-10T12:57:32;1.10;;;0.30;;
37787;SDS011;23627;53.302;-6.362;2023-04-10T12:59:58;0.70;;;0.20;;
37787;SDS011;23627;53.302;-6.362;2023-04-10T13:02:25;0.60;;;0.28;;
37787;SDS011;23627;53.302;-6.362;2023-04-10T13:04:52;0.98;;;0.30;;
37787;SDS011;23627;53.302;-6.362;2023-04-10T13:07:18;2.03;;;0.30;;
37787;SDS011;23627;53.302;-6.362;2023-04-10T13:09:44;2.80;;;0.60;;
37787;SDS011;23627;53.302;-6.362;2023-04-10T13:12:11;1.40;;;0.30;;
37787;SDS011;23627;53.302;-6.362;2023-04-10T13:14:37;0.57;;;0.20;;
37787;SDS011;23627;53.302;-6.362;2023-04-10T13:17:03;2.00;;;0.38;;
37787;SDS011;23627;53.302;-6.362;2023-04-10T13:19:28;2.53;;;0.50;;
37787;SDS011;23627;53.302;-6.362;2023-04-10T13:21:54;0.60;;;0.30;;
37787;SDS011;23627;53.302;-6.362;2023-04-10T13:24:20;2.90;;;0.50;;
37787;SDS011;23627;53.302;-6.362;2023-04-10T13:26:46;1.33;;;0.30;;
37787;SDS011;23627;53.302;-6.362;2023-04-10T13:29:12;1.95;;;0.50;;
37787;SDS011;23627;53.302;-6.362;2023-04-10T13:31:37;1.92;;;0.47;;
37787;SDS011;23627;53.302;-6.362;2023-04-10T13:34:03;1.42;;;0.40;;
37787;SDS011;23627;53.302;-6.362;2023-04-10T13:36:29;1.55;;;0.35;;
37787;SDS011;23627;53.302;-6.362;2023-04-10T13:38:55;2.67;;;0.50;;
37787;SDS011;23627;53.302;-6.362;2023-04-10T13:41:23;2.45;;;0.50;;
37787;SDS011;23627;53.302;-6.362;2023-04-10T13:43:49;2.65;;;0.40;;
37787;SDS011;23627;53.302;-6.362;2023-04-10T13:46:15;0.60;;;0.30;;
37787;SDS011;23627;53.302;-6.362;2023-04-10T13:48:41;2.33;;;0.38;;
37787;SDS011;23627;53.302;-6.362;2023-04-10T13:51:07;1.45;;;0.20;;
37787;SDS011;23627;53.302;-6.362;2023-04-10T13:53:33;1.10;;;0.20;;
37787;SDS011;23627;53.302;-6.362;2023-04-10T13:55:59;0.35;;;0.17;;
37787;SDS011;23627;53.302;-6.362;2023-04-10T13:58:24;0.60;;;0.20;;
37787;SDS011;23627;53.302;-6.362;2023-04-10T14:00:55;1.25;;;0.20;;
37787;SDS011;23627;53.302;-6.362;2023-04-10T14:03:21;0.40;;;0.20;;
37787;SDS011;23627;53.302;-6.362;2023-04-10T14:05:47;1.15;;;0.20;;
37787;SDS011;23627;53.302;-6.362;2023-04-10T14:08:14;0.35;;;0.13;;
37787;SDS011;23627;53.302;-6.362;2023-04-10T14:10:40;0.68;;;0.20;;
37787;SDS011;23627;53.302;-6.362;2023-04-10T14:13:06;1.27;;;0.40;;
37787;SDS011;23627;53.302;-6.362;2023-04-10T14:15:33;1.45;;;0.30;;
37787;SDS011;23627;53.302;-6.362;2023-04-10T14:17:58;1.25;;;0.22;;
37787;SDS011;23627;53.302;-6.362;2023-04-10T14:20:24;1.38;;;0.30;;
37787;SDS011;23627;53.302;-6.362;2023-04-10T14:22:50;1.40;;;0.28;;
37787;SDS011;23627;53.302;-6.362;2023-04-10T14:25:16;1.33;;;0.43;;
37787;SDS011;23627;53.302;-6.362;2023-04-10T14:27:41;1.02;;;0.20;;
37787;SDS011;23627;53.302;-6.362;2023-04-10T14:30:10;0.73;;;0.30;;
37787;SDS011;23627;53.302;-6.362;2023-04-10T14:32:39;0.82;;;0.30;;
37787;SDS011;23627;53.302;-6.362;2023-04-10T14:35:05;2.20;;;0.30;;
37787;SDS011;23627;53.302;-6.362;2023-04-10T14:37:32;0.52;;;0.20;;
37787;SDS011;23627;53.302;-6.362;2023-04-10T14:39:58;0.88;;;0.30;;
37787;SDS011;23627;53.302;-6.362;2023-04-10T14:42:23;0.68;;;0.20;;
37787;SDS011;23627;53.302;-6.362;2023-04-10T14:44:51;0.55;;;0.30;;
37787;SDS011;23627;53.302;-6.362;2023-04-10T14:47:17;0.98;;;0.40;;
37787;SDS011;23627;53.302;-6.362;2023-04-10T14:49:43;0.90;;;0.28;;
37787;SDS011;23627;53.302;-6.362;2023-04-10T14:52:08;1.05;;;0.40;;
37787;SDS011;23627;53.302;-6.362;2023-04-10T14:54:34;2.88;;;0.50;;
37787;SDS011;23627;53.302;-6.362;2023-04-10T14:57:00;1.67;;;0.40;;
37787;SDS011;23627;53.302;-6.362;2023-04-10T14:59:26;3.17;;;0.38;;
37787;SDS011;23627;53.302;-6.362;2023-04-10T15:01:52;0.73;;;0.30;;
37787;SDS011;23627;53.302;-6.362;2023-04-10T15:04:18;0.90;;;0.30;;
37787;SDS011;23627;53.302;-6.362;2023-04-10T15:06:44;2.22;;;0.40;;
37787;SDS011;23627;53.302;-6.362;2023-04-10T15:09:10;1.05;;;0.40;;
37787;SDS011;23627;53.302;-6.362;2023-04-10T15:11:36;1.50;;;0.30;;
37787;SDS011;23627;53.302;-6.362;2023-04-10T15:14:01;1.85;;;0.43;;
37787;SDS011;23627;53.302;-6.362;2023-04-10T15:16:28;2.70;;;0.30;;
37787;SDS011;23627;53.302;-6.362;2023-04-10T15:18:54;1.17;;;0.40;;
37787;SDS011;23627;53.302;-6.362;2023-04-10T15:21:20;1.55;;;0.45;;
37787;SDS011;23627;53.302;-6.362;2023-04-10T15:23:46;1.95;;;0.40;;
37787;SDS011;23627;53.302;-6.362;2023-04-10T15:26:12;1.27;;;0.47;;
37787;SDS011;23627;53.302;-6.362;2023-04-10T15:28:39;1.73;;;0.40;;
37787;SDS011;23627;53.302;-6.362;2023-04-10T15:31:07;1.83;;;0.52;;
37787;SDS011;23627;53.302;-6.362;2023-04-10T15:33:33;1.23;;;0.30;;
37787;SDS011;23627;53.302;-6.362;2023-04-10T15:36:00;2.13;;;0.50;;
37787;SDS011;23627;53.302;-6.362;2023-04-10T15:38:26;1.63;;;0.47;;
37787;SDS011;23627;53.302;-6.362;2023-04-10T15:40:53;1.35;;;0.60;;
37787;SDS011;23627;53.302;-6.362;2023-04-10T15:43:19;2.15;;;0.55;;
37787;SDS011;23627;53.302;-6.362;2023-04-10T15:45:44;1.33;;;0.30;;
37787;SDS011;23627;53.302;-6.362;2023-04-10T15:48:10;1.58;;;0.50;;
37787;SDS011;23627;53.302;-6.362;2023-04-10T15:50:36;2.33;;;0.52;;